ORD weather

Chicago O'Hare International Airport
Chicago, Illinois, United States

Public forecast

Using degrees Fahrenheit for public forecast. Weather courtesy of forecast.io.

METAR (pilot weather report)

Retrieved 2017/11/19 15:51 UTC (1 hour ago):

KORD 191551Z 28009KT 10SM SCT027 M01/M07 A3003 RMK AO2 SLP175 T10061072

TAF (pilot weather forecast)

Retrieved 2017/11/19 12:22 UTC (4 hours ago):

TAF KORD 191120Z 1912/2018 30012G18KT P6SM BKN030 FM191500 29012G18KT P6SM SCT200 FM192300 24008KT P6SM SCT150 FM201400 22012G18KT P6SM SCT200